Portada
METAR-TAF:

METAR-TAF

Aeropuertos :

Kars, Turquía

latitud: 40-36N, longitud: 043-05E, altitud: 1775 m

Observación

El informe se hizo hace 43 minutos, a las 12:50 UTC
Viento 7 kt del este-noreste
Temperatura 0°C
Humedad 69%
Presión 1024 hPa
Visibilidad 10 km o más
Cielo nuboso a una altura de 3500 ft

METAR: LTCF 061250Z 07007KT 9999 BKN035 M00/M05 Q1024

Hora: 16:33 (13:33 UTC)

Pronóstico

El informe se hizo hace 2 horas y 53 minutos, a las 10:40 UTC
Pronóstico válido del 06 a las 12 UTC al 06 a las 21 UTC
Viento 2 kt con dirección variable
Visibilidad 10 km o más
Cielo nuboso a una altura de 3500 ft

TAF: LTCF 061040Z 0612/0621 VRB02KT 9999 BKN035

Observaciones y pronósticos meteorológicos de más de 4000 aeropuertos (mensajes METAR y TAF).

Los puntos amarillos y rojos representan las estaciones disponibles.

Ponga el ratón en el punto deseado para ver el nombre de la estación.

Haga clic para ver las observaciones y los pronósticos meteorológicos.

Para cambiar el mapa : haga clic en los botones verdes con una cruz de color negro para hacer un zoom, en el botón verde con un guión para alejar o en las flechas verdes para mapas adyacentes.


METAR-TAF: